sensor_id;sensor_type;location;lat;lon;timestamp;pressure;altitude;pressure_sealevel;temperature
75658;BMP280;64255;49.892;17.884;2022-12-07T00:01:44;98207.66;;;3.00
75658;BMP280;64255;49.892;17.884;2022-12-07T00:04:16;98208.72;;;3.02
75658;BMP280;64255;49.892;17.884;2022-12-07T00:06:50;98210.97;;;2.87
75658;BMP280;64255;49.892;17.884;2022-12-07T00:09:18;98207.81;;;2.76
75658;BMP280;64255;49.892;17.884;2022-12-07T00:11:50;98202.78;;;2.98
75658;BMP280;64255;49.892;17.884;2022-12-07T00:14:19;98195.50;;;2.86
75658;BMP280;64255;49.892;17.884;2022-12-07T00:16:50;98199.28;;;3.01
75658;BMP280;64255;49.892;17.884;2022-12-07T00:19:18;98197.56;;;2.94
75658;BMP280;64255;49.892;17.884;2022-12-07T00:21:45;98196.41;;;2.95
75658;BMP280;64255;49.892;17.884;2022-12-07T00:24:13;98197.25;;;2.92
75658;BMP280;64255;49.892;17.884;2022-12-07T00:26:41;98194.59;;;2.92
75658;BMP280;64255;49.892;17.884;2022-12-07T00:29:20;98200.44;;;3.00
75658;BMP280;64255;49.892;17.884;2022-12-07T00:31:48;98193.78;;;2.95
75658;BMP280;64255;49.892;17.884;2022-12-07T00:34:21;98197.38;;;3.02
75658;BMP280;64255;49.892;17.884;2022-12-07T00:36:49;98189.44;;;3.02
75658;BMP280;64255;49.892;17.884;2022-12-07T00:39:17;98193.91;;;3.05
75658;BMP280;64255;49.892;17.884;2022-12-07T00:41:44;98190.88;;;3.06
75658;BMP280;64255;49.892;17.884;2022-12-07T00:44:12;98197.06;;;3.00
75658;BMP280;64255;49.892;17.884;2022-12-07T00:46:39;98182.53;;;2.91
75658;BMP280;64255;49.892;17.884;2022-12-07T00:49:06;98185.19;;;2.91
75658;BMP280;64255;49.892;17.884;2022-12-07T00:51:34;98189.72;;;2.91
75658;BMP280;64255;49.892;17.884;2022-12-07T00:54:01;98183.84;;;3.00
75658;BMP280;64255;49.892;17.884;2022-12-07T00:56:29;98186.31;;;3.07
75658;BMP280;64255;49.892;17.884;2022-12-07T00:59:03;98184.00;;;3.09
75658;BMP280;64255;49.892;17.884;2022-12-07T01:01:33;98185.50;;;3.10
75658;BMP280;64255;49.892;17.884;2022-12-07T01:04:02;98191.25;;;3.05
75658;BMP280;64255;49.892;17.884;2022-12-07T01:06:30;98196.47;;;3.08
75658;BMP280;64255;49.892;17.884;2022-12-07T01:08:59;98188.13;;;3.10
75658;BMP280;64255;49.892;17.884;2022-12-07T01:11:29;98197.97;;;3.09
75658;BMP280;64255;49.892;17.884;2022-12-07T01:13:59;98188.47;;;3.12
75658;BMP280;64255;49.892;17.884;2022-12-07T01:16:29;98186.31;;;3.07
75658;BMP280;64255;49.892;17.884;2022-12-07T01:18:58;98189.03;;;3.03
75658;BMP280;64255;49.892;17.884;2022-12-07T01:21:30;98184.34;;;2.94
75658;BMP280;64255;49.892;17.884;2022-12-07T01:23:58;98178.88;;;3.02
75658;BMP280;64255;49.892;17.884;2022-12-07T01:26:26;98179.44;;;3.09
75658;BMP280;64255;49.892;17.884;2022-12-07T01:28:54;98181.75;;;3.07
75658;BMP280;64255;49.892;17.884;2022-12-07T01:31:25;98189.19;;;3.13
75658;BMP280;64255;49.892;17.884;2022-12-07T01:33:57;98172.41;;;3.03
75658;BMP280;64255;49.892;17.884;2022-12-07T01:36:30;98182.50;;;3.08
75658;BMP280;64255;49.892;17.884;2022-12-07T01:39:07;98180.69;;;3.05
75658;BMP280;64255;49.892;17.884;2022-12-07T01:41:38;98182.00;;;3.13
75658;BMP280;64255;49.892;17.884;2022-12-07T01:44:28;98177.66;;;3.06
75658;BMP280;64255;49.892;17.884;2022-12-07T01:46:57;98176.47;;;3.07
75658;BMP280;64255;49.892;17.884;2022-12-07T01:49:39;98178.72;;;3.09
75658;BMP280;64255;49.892;17.884;2022-12-07T01:52:18;98172.75;;;3.05
75658;BMP280;64255;49.892;17.884;2022-12-07T01:54:52;98179.44;;;3.09
75658;BMP280;64255;49.892;17.884;2022-12-07T01:57:21;98180.09;;;3.14
75658;BMP280;64255;49.892;17.884;2022-12-07T01:59:51;98179.94;;;3.04
75658;BMP280;64255;49.892;17.884;2022-12-07T02:02:33;98173.41;;;3.09
75658;BMP280;64255;49.892;17.884;2022-12-07T02:05:05;98178.03;;;3.05
75658;BMP280;64255;49.892;17.884;2022-12-07T02:07:36;98186.66;;;3.09
75658;BMP280;64255;49.892;17.884;2022-12-07T02:10:24;98180.53;;;3.12
75658;BMP280;64255;49.892;17.884;2022-12-07T02:16:23;98182.03;;;2.97
75658;BMP280;64255;49.892;17.884;2022-12-07T02:27:47;98184.00;;;3.09
75658;BMP280;64255;49.892;17.884;2022-12-07T02:30:20;98174.06;;;3.13
75658;BMP280;64255;49.892;17.884;2022-12-07T02:33:00;98181.16;;;3.16
75658;BMP280;64255;49.892;17.884;2022-12-07T02:41:42;98181.94;;;3.00
75658;BMP280;64255;49.892;17.884;2022-12-07T02:44:17;98180.56;;;2.95
75658;BMP280;64255;49.892;17.884;2022-12-07T02:46:59;98190.31;;;2.99
75658;BMP280;64255;49.892;17.884;2022-12-07T02:49:28;98184.03;;;2.92
75658;BMP280;64255;49.892;17.884;2022-12-07T02:51:55;98176.75;;;2.97
75658;BMP280;64255;49.892;17.884;2022-12-07T02:54:23;98183.63;;;2.94
75658;BMP280;64255;49.892;17.884;2022-12-07T03:10:42;98181.94;;;3.17
75658;BMP280;64255;49.892;17.884;2022-12-07T03:13:24;98183.19;;;3.12
75658;BMP280;64255;49.892;17.884;2022-12-07T03:16:01;98184.91;;;3.02
75658;BMP280;64255;49.892;17.884;2022-12-07T03:18:35;98177.22;;;3.08
75658;BMP280;64255;49.892;17.884;2022-12-07T03:21:13;98185.06;;;3.11
75658;BMP280;64255;49.892;17.884;2022-12-07T03:23:46;98185.06;;;3.11
75658;BMP280;64255;49.892;17.884;2022-12-07T03:26:18;98177.03;;;3.15
75658;BMP280;64255;49.892;17.884;2022-12-07T03:28:54;98179.59;;;3.19
75658;BMP280;64255;49.892;17.884;2022-12-07T03:31:37;98180.00;;;3.01
75658;BMP280;64255;49.892;17.884;2022-12-07T03:34:26;98176.56;;;3.04
75658;BMP280;64255;49.892;17.884;2022-12-07T03:37:12;98175.72;;;3.07
75658;BMP280;64255;49.892;17.884;2022-12-07T03:42:31;98173.41;;;3.09
75658;BMP280;64255;49.892;17.884;2022-12-07T03:45:02;98170.19;;;3.01
75658;BMP280;64255;49.892;17.884;2022-12-07T03:50:32;98166.47;;;3.15
75658;BMP280;64255;49.892;17.884;2022-12-07T03:53:15;98165.53;;;3.22
75658;BMP280;64255;49.892;17.884;2022-12-07T03:55:47;98155.78;;;3.19
75658;BMP280;64255;49.892;17.884;2022-12-07T03:58:20;98155.16;;;3.15
75658;BMP280;64255;49.892;17.884;2022-12-07T04:00:50;98156.22;;;3.17
75658;BMP280;64255;49.892;17.884;2022-12-07T04:03:18;98152.06;;;3.16
75658;BMP280;64255;49.892;17.884;2022-12-07T04:05:45;98155.47;;;3.17
75658;BMP280;64255;49.892;17.884;2022-12-07T04:08:13;98160.59;;;3.24
75658;BMP280;64255;49.892;17.884;2022-12-07T04:10:40;98169.00;;;3.19
75658;BMP280;64255;49.892;17.884;2022-12-07T04:13:07;98163.41;;;3.17
75658;BMP280;64255;49.892;17.884;2022-12-07T04:15:34;98163.00;;;3.18
75658;BMP280;64255;49.892;17.884;2022-12-07T04:18:02;98154.34;;;3.31
75658;BMP280;64255;49.892;17.884;2022-12-07T04:20:29;98158.69;;;3.24
75658;BMP280;64255;49.892;17.884;2022-12-07T04:22:57;98161.00;;;3.22
75658;BMP280;64255;49.892;17.884;2022-12-07T04:25:24;98159.63;;;3.18
75658;BMP280;64255;49.892;17.884;2022-12-07T04:27:51;98155.06;;;3.18
75658;BMP280;64255;49.892;17.884;2022-12-07T04:30:19;98151.97;;;3.20
75658;BMP280;64255;49.892;17.884;2022-12-07T04:32:46;98160.94;;;3.09
75658;BMP280;64255;49.892;17.884;2022-12-07T04:35:13;98162.66;;;3.16
75658;BMP280;64255;49.892;17.884;2022-12-07T04:37:40;98158.44;;;3.19
75658;BMP280;64255;49.892;17.884;2022-12-07T04:40:11;98162.16;;;3.21
75658;BMP280;64255;49.892;17.884;2022-12-07T04:42:38;98156.97;;;3.18
75658;BMP280;64255;49.892;17.884;2022-12-07T04:45:06;98168.78;;;3.13
75658;BMP280;64255;49.892;17.884;2022-12-07T04:47:34;98160.69;;;3.20
75658;BMP280;64255;49.892;17.884;2022-12-07T04:50:02;98167.56;;;3.18
75658;BMP280;64255;49.892;17.884;2022-12-07T04:52:30;98162.50;;;3.23
75658;BMP280;64255;49.892;17.884;2022-12-07T04:54:57;98160.34;;;3.18
75658;BMP280;64255;49.892;17.884;2022-12-07T04:57:25;98161.84;;;3.19
75658;BMP280;64255;49.892;17.884;2022-12-07T04:59:51;98161.06;;;3.19
75658;BMP280;64255;49.892;17.884;2022-12-07T05:02:18;98156.53;;;3.19
75658;BMP280;64255;49.892;17.884;2022-12-07T05:04:46;98162.09;;;3.08
75658;BMP280;64255;49.892;17.884;2022-12-07T05:07:13;98167.84;;;3.20
75658;BMP280;64255;49.892;17.884;2022-12-07T05:09:40;98156.88;;;3.05
75658;BMP280;64255;49.892;17.884;2022-12-07T05:12:07;98173.75;;;3.11
75658;BMP280;64255;49.892;17.884;2022-12-07T05:14:34;98170.25;;;3.14
75658;BMP280;64255;49.892;17.884;2022-12-07T05:17:02;98167.13;;;3.19
75658;BMP280;64255;49.892;17.884;2022-12-07T05:19:29;98163.22;;;3.24
75658;BMP280;64255;49.892;17.884;2022-12-07T05:21:56;98172.19;;;3.14
75658;BMP280;64255;49.892;17.884;2022-12-07T05:24:23;98164.41;;;3.06
75658;BMP280;64255;49.892;17.884;2022-12-07T05:26:50;98167.31;;;3.12
75658;BMP280;64255;49.892;17.884;2022-12-07T05:29:17;98175.41;;;3.21
75658;BMP280;64255;49.892;17.884;2022-12-07T05:31:45;98164.81;;;3.21
75658;BMP280;64255;49.892;17.884;2022-12-07T05:34:12;98169.94;;;3.12
75658;BMP280;64255;49.892;17.884;2022-12-07T05:36:40;98179.34;;;3.13
75658;BMP280;64255;49.892;17.884;2022-12-07T05:39:08;98175.94;;;3.29
75658;BMP280;64255;49.892;17.884;2022-12-07T05:41:35;98181.97;;;3.30
75658;BMP280;64255;49.892;17.884;2022-12-07T05:44:04;98177.13;;;3.28
75658;BMP280;64255;49.892;17.884;2022-12-07T05:46:32;98183.31;;;3.21
75658;BMP280;64255;49.892;17.884;2022-12-07T05:48:59;98179.75;;;2.99
75658;BMP280;64255;49.892;17.884;2022-12-07T05:51:27;98181.13;;;3.03
75658;BMP280;64255;49.892;17.884;2022-12-07T05:53:54;98176.47;;;3.37
75658;BMP280;64255;49.892;17.884;2022-12-07T05:56:22;98182.81;;;3.26
75658;BMP280;64255;49.892;17.884;2022-12-07T05:58:49;98190.50;;;3.21
75658;BMP280;64255;49.892;17.884;2022-12-07T06:01:17;98180.50;;;3.29
75658;BMP280;64255;49.892;17.884;2022-12-07T06:03:44;98179.44;;;3.26
75658;BMP280;64255;49.892;17.884;2022-12-07T06:06:11;98182.34;;;3.45
75658;BMP280;64255;49.892;17.884;2022-12-07T06:08:38;98193.41;;;3.26
75658;BMP280;64255;49.892;17.884;2022-12-07T06:11:06;98197.75;;;3.33
75658;BMP280;64255;49.892;17.884;2022-12-07T06:13:33;98197.47;;;3.15
75658;BMP280;64255;49.892;17.884;2022-12-07T06:16:00;98198.91;;;3.32
75658;BMP280;64255;49.892;17.884;2022-12-07T06:18:27;98197.28;;;3.22
75658;BMP280;64255;49.892;17.884;2022-12-07T06:20:55;98200.91;;;2.99
75658;BMP280;64255;49.892;17.884;2022-12-07T06:23:22;98201.84;;;3.21
75658;BMP280;64255;49.892;17.884;2022-12-07T06:25:49;98199.69;;;3.16
75658;BMP280;64255;49.892;17.884;2022-12-07T06:28:17;98196.13;;;3.23
75658;BMP280;64255;49.892;17.884;2022-12-07T06:30:44;98206.38;;;3.21
75658;BMP280;64255;49.892;17.884;2022-12-07T06:33:12;98202.69;;;3.31
75658;BMP280;64255;49.892;17.884;2022-12-07T06:35:39;98204.16;;;3.19
75658;BMP280;64255;49.892;17.884;2022-12-07T06:38:06;98210.50;;;3.22
75658;BMP280;64255;49.892;17.884;2022-12-07T06:40:34;98206.31;;;3.24
75658;BMP280;64255;49.892;17.884;2022-12-07T06:43:00;98202.66;;;3.18
75658;BMP280;64255;49.892;17.884;2022-12-07T06:45:27;98204.41;;;3.25
75658;BMP280;64255;49.892;17.884;2022-12-07T06:47:54;98199.94;;;3.22
75658;BMP280;64255;49.892;17.884;2022-12-07T06:50:22;98197.38;;;3.18
75658;BMP280;64255;49.892;17.884;2022-12-07T06:52:50;98204.50;;;3.21
75658;BMP280;64255;49.892;17.884;2022-12-07T06:55:18;98206.63;;;3.26
75658;BMP280;64255;49.892;17.884;2022-12-07T06:57:45;98207.22;;;3.18
75658;BMP280;64255;49.892;17.884;2022-12-07T07:00:14;98199.94;;;3.22
75658;BMP280;64255;49.892;17.884;2022-12-07T07:02:40;98201.84;;;3.21
75658;BMP280;64255;49.892;17.884;2022-12-07T07:05:08;98202.19;;;3.23
75658;BMP280;64255;49.892;17.884;2022-12-07T07:07:35;98205.13;;;3.25
75658;BMP280;64255;49.892;17.884;2022-12-07T07:10:03;98205.81;;;3.13
75658;BMP280;64255;49.892;17.884;2022-12-07T07:12:30;98199.78;;;3.13
75658;BMP280;64255;49.892;17.884;2022-12-07T07:14:58;98202.25;;;3.20
75658;BMP280;64255;49.892;17.884;2022-12-07T07:17:25;98198.63;;;3.14
75658;BMP280;64255;49.892;17.884;2022-12-07T07:19:52;98201.75;;;3.08
75658;BMP280;64255;49.892;17.884;2022-12-07T07:22:19;98205.25;;;3.05
75658;BMP280;64255;49.892;17.884;2022-12-07T07:24:46;98207.91;;;3.05
75658;BMP280;64255;49.892;17.884;2022-12-07T07:27:13;98205.16;;;3.09
75658;BMP280;64255;49.892;17.884;2022-12-07T07:29:40;98205.56;;;3.07
75658;BMP280;64255;49.892;17.884;2022-12-07T07:32:08;98205.25;;;3.05
75658;BMP280;64255;49.892;17.884;2022-12-07T07:34:35;98218.03;;;3.07
75658;BMP280;64255;49.892;17.884;2022-12-07T07:37:02;98218.38;;;3.09
75658;BMP280;64255;49.892;17.884;2022-12-07T07:39:30;98223.16;;;3.14
75658;BMP280;64255;49.892;17.884;2022-12-07T07:41:57;98219.44;;;3.11
75658;BMP280;64255;49.892;17.884;2022-12-07T07:44:24;98225.50;;;3.12
75658;BMP280;64255;49.892;17.884;2022-12-07T07:46:50;98227.72;;;3.14
75658;BMP280;64255;49.892;17.884;2022-12-07T07:49:18;98224.16;;;3.20
75658;BMP280;64255;49.892;17.884;2022-12-07T07:51:45;98223.41;;;3.20
75658;BMP280;64255;49.892;17.884;2022-12-07T07:54:12;98224.50;;;3.22
75658;BMP280;64255;49.892;17.884;2022-12-07T07:56:39;98230.53;;;3.23
75658;BMP280;64255;49.892;17.884;2022-12-07T07:59:07;98244.91;;;3.22
75658;BMP280;64255;49.892;17.884;2022-12-07T08:01:34;98236.47;;;3.27
75658;BMP280;64255;49.892;17.884;2022-12-07T08:04:02;98245.56;;;3.26
75658;BMP280;64255;49.892;17.884;2022-12-07T08:06:30;98241.34;;;3.29
75658;BMP280;64255;49.892;17.884;2022-12-07T08:08:57;98250.00;;;3.29
75658;BMP280;64255;49.892;17.884;2022-12-07T08:11:24;98246.94;;;3.31
75658;BMP280;64255;49.892;17.884;2022-12-07T08:13:52;98237.66;;;3.39
75658;BMP280;64255;49.892;17.884;2022-12-07T08:16:19;98248.44;;;3.32
75658;BMP280;64255;49.892;17.884;2022-12-07T08:18:47;98243.81;;;3.36
75658;BMP280;64255;49.892;17.884;2022-12-07T08:21:15;98247.69;;;3.48
75658;BMP280;64255;49.892;17.884;2022-12-07T08:23:43;98237.53;;;3.46
75658;BMP280;64255;49.892;17.884;2022-12-07T08:26:15;98247.91;;;3.53
75658;BMP280;64255;49.892;17.884;2022-12-07T08:28:43;98243.66;;;3.56
75658;BMP280;64255;49.892;17.884;2022-12-07T08:31:15;98237.97;;;3.57
75658;BMP280;64255;49.892;17.884;2022-12-07T08:33:46;98245.22;;;3.70
75658;BMP280;64255;49.892;17.884;2022-12-07T08:36:14;98234.25;;;3.84
75658;BMP280;64255;49.892;17.884;2022-12-07T08:38:42;98242.06;;;3.75
75658;BMP280;64255;49.892;17.884;2022-12-07T08:41:10;98244.41;;;3.86
75658;BMP280;64255;49.892;17.884;2022-12-07T08:43:37;98247.56;;;3.81
75658;BMP280;64255;49.892;17.884;2022-12-07T08:48:55;98252.00;;;3.71
75658;BMP280;64255;49.892;17.884;2022-12-07T08:51:25;98242.91;;;3.72
75658;BMP280;64255;49.892;17.884;2022-12-07T08:53:54;98249.94;;;3.92
75658;BMP280;64255;49.892;17.884;2022-12-07T08:56:22;98246.69;;;4.00
75658;BMP280;64255;49.892;17.884;2022-12-07T08:58:50;98252.19;;;4.06
75658;BMP280;64255;49.892;17.884;2022-12-07T09:01:17;98251.22;;;4.00
75658;BMP280;64255;49.892;17.884;2022-12-07T09:03:44;98245.16;;;3.86
75658;BMP280;64255;49.892;17.884;2022-12-07T09:06:12;98242.97;;;3.98
75658;BMP280;64255;49.892;17.884;2022-12-07T09:08:45;98242.00;;;3.92
75658;BMP280;64255;49.892;17.884;2022-12-07T09:11:13;98233.03;;;4.02
75658;BMP280;64255;49.892;17.884;2022-12-07T09:13:40;98237.78;;;4.07
75658;BMP280;64255;49.892;17.884;2022-12-07T09:16:07;98243.91;;;4.04
75658;BMP280;64255;49.892;17.884;2022-12-07T09:18:35;98240.50;;;4.03
75658;BMP280;64255;49.892;17.884;2022-12-07T09:21:02;98240.63;;;4.00
75658;BMP280;64255;49.892;17.884;2022-12-07T09:23:30;98230.25;;;3.93
75658;BMP280;64255;49.892;17.884;2022-12-07T09:26:02;98232.06;;;3.96
75658;BMP280;64255;49.892;17.884;2022-12-07T09:28:33;98235.81;;;3.82
75658;BMP280;64255;49.892;17.884;2022-12-07T09:31:00;98234.34;;;3.51
75658;BMP280;64255;49.892;17.884;2022-12-07T09:33:29;98235.50;;;3.50
75658;BMP280;64255;49.892;17.884;2022-12-07T09:35:56;98229.41;;;3.37
75658;BMP280;64255;49.892;17.884;2022-12-07T09:38:24;98225.94;;;3.40
75658;BMP280;64255;49.892;17.884;2022-12-07T09:40:51;98223.94;;;3.44
75658;BMP280;64255;49.892;17.884;2022-12-07T09:43:22;98221.31;;;3.44
75658;BMP280;64255;49.892;17.884;2022-12-07T09:45:55;98226.28;;;3.55
75658;BMP280;64255;49.892;17.884;2022-12-07T09:48:32;98223.16;;;3.60
75658;BMP280;64255;49.892;17.884;2022-12-07T09:51:01;98217.53;;;3.58
75658;BMP280;64255;49.892;17.884;2022-12-07T09:53:34;98224.69;;;3.74
75658;BMP280;64255;49.892;17.884;2022-12-07T09:56:03;98212.72;;;3.82
75658;BMP280;64255;49.892;17.884;2022-12-07T09:58:33;98210.94;;;3.79
75658;BMP280;64255;49.892;17.884;2022-12-07T10:01:18;98195.06;;;3.79
75658;BMP280;64255;49.892;17.884;2022-12-07T10:03:53;98187.66;;;3.87
75658;BMP280;64255;49.892;17.884;2022-12-07T10:06:21;98188.91;;;3.82
75658;BMP280;64255;49.892;17.884;2022-12-07T10:08:48;98191.34;;;3.89
75658;BMP280;64255;49.892;17.884;2022-12-07T10:11:16;98185.72;;;3.87
75658;BMP280;64255;49.892;17.884;2022-12-07T10:13:51;98189.44;;;4.03
75658;BMP280;64255;49.892;17.884;2022-12-07T10:18:52;98197.63;;;4.09
75658;BMP280;64255;49.892;17.884;2022-12-07T10:21:25;98189.28;;;4.23
75658;BMP280;64255;49.892;17.884;2022-12-07T10:24:14;98184.69;;;4.23
75658;BMP280;64255;49.892;17.884;2022-12-07T10:26:51;98177.31;;;4.18
75658;BMP280;64255;49.892;17.884;2022-12-07T10:29:31;98182.06;;;4.36
75658;BMP280;64255;49.892;17.884;2022-12-07T10:34:46;98164.28;;;4.72
75658;BMP280;64255;49.892;17.884;2022-12-07T10:39:56;98162.97;;;4.90
75658;BMP280;64255;49.892;17.884;2022-12-07T10:42:29;98158.66;;;5.05
75658;BMP280;64255;49.892;17.884;2022-12-07T11:09:57;98133.53;;;5.41
75658;BMP280;64255;49.892;17.884;2022-12-07T11:15:33;98132.94;;;5.37
75658;BMP280;64255;49.892;17.884;2022-12-07T11:30:14;98131.75;;;4.59
75658;BMP280;64255;49.892;17.884;2022-12-07T11:33:22;98116.41;;;4.89
75658;BMP280;64255;49.892;17.884;2022-12-07T11:36:38;98131.56;;;4.88
75658;BMP280;64255;49.892;17.884;2022-12-07T11:39:37;98134.19;;;5.01
75658;BMP280;64255;49.892;17.884;2022-12-07T11:42:22;98122.09;;;5.00
75658;BMP280;64255;49.892;17.884;2022-12-07T11:45:09;98125.09;;;4.89
75658;BMP280;64255;49.892;17.884;2022-12-07T11:48:10;98126.44;;;4.94
75658;BMP280;64255;49.892;17.884;2022-12-07T11:50:58;98123.63;;;5.10
75658;BMP280;64255;49.892;17.884;2022-12-07T11:53:33;98122.22;;;4.83
75658;BMP280;64255;49.892;17.884;2022-12-07T11:56:14;98113.56;;;5.27
75658;BMP280;64255;49.892;17.884;2022-12-07T12:01:42;98118.31;;;4.53
75658;BMP280;64255;49.892;17.884;2022-12-07T12:05:02;98109.44;;;5.26
75658;BMP280;64255;49.892;17.884;2022-12-07T12:07:32;98106.03;;;4.81
75658;BMP280;64255;49.892;17.884;2022-12-07T12:10:49;98107.81;;;4.84
75658;BMP280;64255;49.892;17.884;2022-12-07T12:14:04;98111.16;;;5.20
75658;BMP280;64255;49.892;17.884;2022-12-07T12:22:37;98113.50;;;4.96
75658;BMP280;64255;49.892;17.884;2022-12-07T12:25:25;98104.63;;;4.54
75658;BMP280;64255;49.892;17.884;2022-12-07T12:27:57;98108.56;;;4.50
75658;BMP280;64255;49.892;17.884;2022-12-07T12:30:40;98112.00;;;4.37
75658;BMP280;64255;49.892;17.884;2022-12-07T12:33:28;98118.22;;;4.57
75658;BMP280;64255;49.892;17.884;2022-12-07T12:47:02;98134.72;;;4.61
75658;BMP280;64255;49.892;17.884;2022-12-07T12:49:37;98132.88;;;4.35
75658;BMP280;64255;49.892;17.884;2022-12-07T12:55:27;98136.41;;;4.67
75658;BMP280;64255;49.892;17.884;2022-12-07T13:00:48;98133.03;;;4.54
75658;BMP280;64255;49.892;17.884;2022-12-07T13:03:29;98144.72;;;4.57
75658;BMP280;64255;49.892;17.884;2022-12-07T13:08:58;98141.63;;;4.45
75658;BMP280;64255;49.892;17.884;2022-12-07T13:11:34;98149.28;;;4.30
75658;BMP280;64255;49.892;17.884;2022-12-07T13:14:53;98135.44;;;4.13
75658;BMP280;64255;49.892;17.884;2022-12-07T13:20:05;98141.25;;;4.08
75658;BMP280;64255;49.892;17.884;2022-12-07T13:25:45;98134.34;;;4.23
75658;BMP280;64255;49.892;17.884;2022-12-07T13:28:20;98133.63;;;4.10
75658;BMP280;64255;49.892;17.884;2022-12-07T13:31:11;98121.78;;;4.02
75658;BMP280;64255;49.892;17.884;2022-12-07T13:33:44;98116.16;;;4.13
75658;BMP280;64255;49.892;17.884;2022-12-07T13:36:20;98108.75;;;4.20
75658;BMP280;64255;49.892;17.884;2022-12-07T13:38:57;98114.56;;;4.02
75658;BMP280;64255;49.892;17.884;2022-12-07T13:41:28;98112.88;;;3.96
75658;BMP280;64255;49.892;17.884;2022-12-07T13:44:16;98111.34;;;3.82
75658;BMP280;64255;49.892;17.884;2022-12-07T13:49:38;98126.50;;;3.68
75658;BMP280;64255;49.892;17.884;2022-12-07T13:52:35;98121.50;;;3.57
75658;BMP280;64255;49.892;17.884;2022-12-07T13:55:16;98141.19;;;3.56
75658;BMP280;64255;49.892;17.884;2022-12-07T13:57:50;98144.56;;;3.57
75658;BMP280;64255;49.892;17.884;2022-12-07T14:00:25;98139.94;;;3.48
75658;BMP280;64255;49.892;17.884;2022-12-07T14:05:41;98139.94;;;3.48
75658;BMP280;64255;49.892;17.884;2022-12-07T14:08:21;98139.28;;;3.44
75658;BMP280;64255;49.892;17.884;2022-12-07T14:13:38;98125.38;;;3.40
75658;BMP280;64255;49.892;17.884;2022-12-07T14:16:37;98137.31;;;3.32
75658;BMP280;64255;49.892;17.884;2022-12-07T14:19:53;98139.75;;;3.26
75658;BMP280;64255;49.892;17.884;2022-12-07T14:22:39;98134.03;;;3.27
75658;BMP280;64255;49.892;17.884;2022-12-07T14:27:59;98122.66;;;3.14
75658;BMP280;64255;49.892;17.884;2022-12-07T14:30:30;98113.00;;;3.07
75658;BMP280;64255;49.892;17.884;2022-12-07T14:33:02;98119.03;;;3.08
75658;BMP280;64255;49.892;17.884;2022-12-07T14:35:31;98114.91;;;3.07
75658;BMP280;64255;49.892;17.884;2022-12-07T14:37:59;98119.19;;;3.01
75658;BMP280;64255;49.892;17.884;2022-12-07T14:40:29;98121.44;;;3.02
75658;BMP280;64255;49.892;17.884;2022-12-07T14:43:05;98136.25;;;3.00
75658;BMP280;64255;49.892;17.884;2022-12-07T14:45:33;98129.66;;;2.91
75658;BMP280;64255;49.892;17.884;2022-12-07T14:48:00;98140.22;;;2.91
75658;BMP280;64255;49.892;17.884;2022-12-07T14:50:28;98136.44;;;2.92
75658;BMP280;64255;49.892;17.884;2022-12-07T14:53:01;98134.69;;;2.86
75658;BMP280;64255;49.892;17.884;2022-12-07T14:55:31;98148.16;;;2.91
75658;BMP280;64255;49.892;17.884;2022-12-07T14:57:59;98147.50;;;2.71
75658;BMP280;64255;49.892;17.884;2022-12-07T15:00:28;98144.88;;;2.71
75658;BMP280;64255;49.892;17.884;2022-12-07T15:02:56;98149.50;;;2.67
75658;BMP280;64255;49.892;17.884;2022-12-07T15:05:24;98152.56;;;2.65
75658;BMP280;64255;49.892;17.884;2022-12-07T15:07:52;98152.81;;;2.87
75658;BMP280;64255;49.892;17.884;2022-12-07T15:10:27;98157.75;;;2.85
75658;BMP280;64255;49.892;17.884;2022-12-07T15:12:54;98160.22;;;2.92
75658;BMP280;64255;49.892;17.884;2022-12-07T15:15:21;98157.25;;;2.57
75658;BMP280;64255;49.892;17.884;2022-12-07T15:17:48;98160.56;;;2.45
75658;BMP280;64255;49.892;17.884;2022-12-07T15:20:16;98163.69;;;2.40
75658;BMP280;64255;49.892;17.884;2022-12-07T15:22:43;98162.41;;;2.64
75658;BMP280;64255;49.892;17.884;2022-12-07T15:25:14;98167.16;;;2.53
75658;BMP280;64255;49.892;17.884;2022-12-07T15:27:41;98164.25;;;2.47
75658;BMP280;64255;49.892;17.884;2022-12-07T15:30:09;98160.44;;;1.95
75658;BMP280;64255;49.892;17.884;2022-12-07T15:32:36;98158.66;;;2.45
75658;BMP280;64255;49.892;17.884;2022-12-07T15:35:04;98172.69;;;2.42
75658;BMP280;64255;49.892;17.884;2022-12-07T15:37:31;98174.94;;;2.60
75658;BMP280;64255;49.892;17.884;2022-12-07T15:39:58;98166.34;;;2.40
75658;BMP280;64255;49.892;17.884;2022-12-07T15:42:26;98166.75;;;2.71
75658;BMP280;64255;49.892;17.884;2022-12-07T15:44:53;98178.56;;;2.67
75658;BMP280;64255;49.892;17.884;2022-12-07T15:47:21;98161.31;;;2.78
75658;BMP280;64255;49.892;17.884;2022-12-07T15:49:48;98169.16;;;2.82
75658;BMP280;64255;49.892;17.884;2022-12-07T15:52:16;98166.84;;;2.68
75658;BMP280;64255;49.892;17.884;2022-12-07T15:54:43;98172.28;;;2.77
75658;BMP280;64255;49.892;17.884;2022-12-07T15:57:10;98163.63;;;2.76
75658;BMP280;64255;49.892;17.884;2022-12-07T15:59:37;98166.69;;;2.58
75658;BMP280;64255;49.892;17.884;2022-12-07T16:02:05;98153.38;;;2.62
75658;BMP280;64255;49.892;17.884;2022-12-07T16:04:32;98140.09;;;2.66
75658;BMP280;64255;49.892;17.884;2022-12-07T16:06:59;98136.19;;;2.70
75658;BMP280;64255;49.892;17.884;2022-12-07T16:09:26;98141.06;;;2.72
75658;BMP280;64255;49.892;17.884;2022-12-07T16:11:55;98139.91;;;2.73
75658;BMP280;64255;49.892;17.884;2022-12-07T16:14:22;98141.06;;;2.55
75658;BMP280;64255;49.892;17.884;2022-12-07T16:16:49;98159.44;;;2.62
75658;BMP280;64255;49.892;17.884;2022-12-07T16:19:17;98169.50;;;2.14
75658;BMP280;64255;49.892;17.884;2022-12-07T16:21:44;98175.22;;;1.93
75658;BMP280;64255;49.892;17.884;2022-12-07T16:24:12;98183.91;;;2.30
75658;BMP280;64255;49.892;17.884;2022-12-07T16:26:39;98180.03;;;1.98
75658;BMP280;64255;49.892;17.884;2022-12-07T16:29:06;98182.19;;;2.03
75658;BMP280;64255;49.892;17.884;2022-12-07T16:31:34;98182.16;;;2.23
75658;BMP280;64255;49.892;17.884;2022-12-07T16:34:00;98186.91;;;2.12
75658;BMP280;64255;49.892;17.884;2022-12-07T16:36:28;98195.72;;;2.25
75658;BMP280;64255;49.892;17.884;2022-12-07T16:38:55;98191.38;;;2.52
75658;BMP280;64255;49.892;17.884;2022-12-07T16:41:25;98186.78;;;2.36
75658;BMP280;64255;49.892;17.884;2022-12-07T16:43:52;98184.81;;;2.23
75658;BMP280;64255;49.892;17.884;2022-12-07T16:46:19;98177.63;;;2.40
75658;BMP280;64255;49.892;17.884;2022-12-07T16:48:47;98180.97;;;2.61